Time;durP1;ratioP1;P1;durP2;ratioP2;P2;SDS_P1;SDS_P2;PMS_P1;PMS_P2;Temp;Humidity;BMP_temperature;BMP_pressure;BME280_temperature;BME280_humidity;BME280_pressure;Samples;Min_cycle;Max_cycle;Signal;HPM_P1;HPM_P2
2022/12/16 00:01:24;;;;;;;19.85;11.40;;;-4.00;99.90;;;;;;464195;254;27985;-68
2022/12/16 00:03:25;;;;;;;23.45;12.40;;;-4.00;99.90;;;;;;466033;253;27538;-69
2022/12/16 00:05:26;;;;;;;25.42;11.80;;;-4.00;99.90;;;;;;466050;253;27584;-68
2022/12/16 00:07:27;;;;;;;21.60;12.00;;;-4.00;99.90;;;;;;464226;254;27517;-68
2022/12/16 00:09:29;;;;;;;18.52;11.57;;;-4.00;99.90;;;;;;466013;253;27613;-68
2022/12/16 00:11:31;;;;;;;23.85;10.77;;;-4.00;99.90;;;;;;464238;254;27679;-69
2022/12/16 00:13:31;;;;;;;20.08;10.82;;;-4.00;99.90;;;;;;466016;255;27984;-68
2022/12/16 00:15:33;;;;;;;17.05;10.70;;;-4.00;99.90;;;;;;466016;253;27709;-68
2022/12/16 00:17:35;;;;;;;14.35;10.23;;;-4.00;99.90;;;;;;464228;254;27570;-68
2022/12/16 00:19:35;;;;;;;17.62;10.25;;;-3.90;99.90;;;;;;466033;253;27540;-70
2022/12/16 00:21:36;;;;;;;16.25;9.60;;;-3.90;99.90;;;;;;466075;253;27592;-69
2022/12/16 00:23:40;;;;;;;16.02;9.38;;;-4.00;99.90;;;;;;464274;255;27488;-68
2022/12/16 00:25:42;;;;;;;19.62;10.50;;;-4.00;99.90;;;;;;464250;254;27440;-69
2022/12/16 00:27:43;;;;;;;13.55;8.82;;;-4.00;99.90;;;;;;464289;254;27472;-68
2022/12/16 00:29:44;;;;;;;15.23;9.90;;;-3.90;99.90;;;;;;464259;253;27488;-69
2022/12/16 00:31:46;;;;;;;16.92;9.65;;;-3.90;99.90;;;;;;464202;255;27445;-68
2022/12/16 00:33:47;;;;;;;20.10;11.00;;;-3.90;99.90;;;;;;464231;255;27483;-68
2022/12/16 00:35:48;;;;;;;16.30;9.55;;;-3.90;99.90;;;;;;464249;254;27987;-68
2022/12/16 00:37:50;;;;;;;14.87;9.13;;;-3.90;99.90;;;;;;464283;254;27907;-69
2022/12/16 00:39:51;;;;;;;15.13;9.32;;;-3.90;99.90;;;;;;464271;256;28578;-68
2022/12/16 00:41:53;;;;;;;17.27;8.95;;;-3.90;99.90;;;;;;464186;255;28041;-69
2022/12/16 00:43:54;;;;;;;14.87;9.50;;;-3.90;99.90;;;;;;464254;256;27901;-68
2022/12/16 00:45:55;;;;;;;16.95;9.98;;;-3.90;99.90;;;;;;464229;254;27464;-69
2022/12/16 00:47:56;;;;;;;16.10;8.70;;;-3.90;99.90;;;;;;464133;254;27536;-69
2022/12/16 00:49:58;;;;;;;15.88;9.18;;;-3.90;99.90;;;;;;464090;254;27480;-69
2022/12/16 00:51:59;;;;;;;16.58;8.82;;;-4.00;99.90;;;;;;463936;256;27464;-69
2022/12/16 00:54:00;;;;;;;14.50;9.13;;;-3.90;99.90;;;;;;464237;254;27463;-68
2022/12/16 00:56:01;;;;;;;16.90;9.45;;;-3.90;99.90;;;;;;464250;253;27467;-68
2022/12/16 00:58:03;;;;;;;16.85;9.43;;;-3.90;99.90;;;;;;464281;256;27954;-69
2022/12/16 01:00:04;;;;;;;15.35;8.77;;;-3.90;99.90;;;;;;464276;256;27986;-68
2022/12/16 01:02:05;;;;;;;16.05;8.80;;;-3.90;99.90;;;;;;464211;256;27472;-70
2022/12/16 01:04:06;;;;;;;16.98;8.65;;;-3.90;99.90;;;;;;464265;256;27636;-69
2022/12/16 01:06:08;;;;;;;14.85;8.60;;;-4.00;99.90;;;;;;464270;254;27484;-68
2022/12/16 01:08:09;;;;;;;13.02;8.10;;;-4.00;99.90;;;;;;464256;254;27517;-70
2022/12/16 01:10:10;;;;;;;15.93;8.65;;;-4.00;99.90;;;;;;464288;254;27607;-68
2022/12/16 01:12:11;;;;;;;14.75;8.55;;;-4.00;99.90;;;;;;464267;256;27503;-69
2022/12/16 01:14:13;;;;;;;11.45;7.80;;;-4.00;99.90;;;;;;464264;256;27973;-68
2022/12/16 01:16:14;;;;;;;12.50;7.55;;;-4.00;99.90;;;;;;464261;254;27915;-69
2022/12/16 01:18:15;;;;;;;11.48;7.90;;;-4.00;99.90;;;;;;464270;255;27552;-70
2022/12/16 01:20:16;;;;;;;11.80;7.95;;;-4.00;99.90;;;;;;464266;253;27551;-69
2022/12/16 01:22:18;;;;;;;12.73;7.70;;;-4.10;99.90;;;;;;464236;256;27612;-69
2022/12/16 01:24:19;;;;;;;11.00;7.55;;;-4.10;99.90;;;;;;464267;254;27547;-69
2022/12/16 01:26:20;;;;;;;11.02;7.15;;;-4.10;99.90;;;;;;464257;256;27475;-68
2022/12/16 01:28:21;;;;;;;13.70;8.48;;;-4.10;99.90;;;;;;464058;255;27819;-69
2022/12/16 01:30:23;;;;;;;11.52;7.82;;;-4.10;99.90;;;;;;464016;256;28347;-68
2022/12/16 01:32:24;;;;;;;16.62;7.78;;;-4.20;99.90;;;;;;464244;255;27929;-68
2022/12/16 01:34:25;;;;;;;13.32;8.38;;;-4.20;99.90;;;;;;464177;255;27622;-68
2022/12/16 01:36:26;;;;;;;15.13;8.93;;;-4.10;99.90;;;;;;464276;255;27476;-68
2022/12/16 01:38:28;;;;;;;11.57;7.68;;;-4.10;99.90;;;;;;464248;256;27500;-69
2022/12/16 01:40:29;;;;;;;14.13;7.75;;;-4.10;99.90;;;;;;464286;256;27446;-68
2022/12/16 01:42:32;;;;;;;10.95;7.65;;;-4.20;99.90;;;;;;464270;256;27540;-69
2022/12/16 01:44:32;;;;;;;12.30;8.20;;;-4.20;99.90;;;;;;464147;256;27996;-69
2022/12/16 01:46:33;;;;;;;14.52;7.62;;;-4.20;99.90;;;;;;464240;255;28031;-68
2022/12/16 01:48:34;;;;;;;10.40;7.55;;;-4.20;99.90;;;;;;464252;256;27502;-69
2022/12/16 01:50:36;;;;;;;11.43;8.02;;;-4.20;99.90;;;;;;464280;256;27527;-68
2022/12/16 01:52:37;;;;;;;14.35;7.15;;;-4.30;99.90;;;;;;464261;256;27575;-69
2022/12/16 01:54:38;;;;;;;12.00;6.55;;;-4.30;99.90;;;;;;464243;255;27658;-69
2022/12/16 01:56:39;;;;;;;12.18;7.85;;;-4.40;99.90;;;;;;464257;254;27687;-68
2022/12/16 01:58:41;;;;;;;9.23;6.12;;;-4.50;99.90;;;;;;464245;256;27829;-70
2022/12/16 02:00:42;;;;;;;11.43;7.47;;;-4.50;99.90;;;;;;464249;255;27999;-68
2022/12/16 02:02:43;;;;;;;12.55;7.18;;;-4.60;99.90;;;;;;464272;256;28145;-69
2022/12/16 02:05:30;;;;;;;11.02;6.90;;;-4.50;99.90;;;;;;464110;256;27461;-69
2022/12/16 02:06:45;;;;;;;11.18;6.62;;;-4.50;99.90;;;;;;462035;256;27476;-69
2022/12/16 02:08:47;;;;;;;12.80;7.68;;;-4.50;99.90;;;;;;464249;254;27576;-69
2022/12/16 02:10:48;;;;;;;12.50;6.45;;;-4.50;99.90;;;;;;464256;256;27568;-68
2022/12/16 02:12:49;;;;;;;10.65;6.62;;;-4.60;99.90;;;;;;464263;256;27568;-69
2022/12/16 02:14:50;;;;;;;13.48;7.03;;;-4.70;99.90;;;;;;464211;255;27598;-68
2022/12/16 02:16:52;;;;;;;10.95;7.05;;;-4.80;99.90;;;;;;464270;254;28116;-68
2022/12/16 02:18:53;;;;;;;8.05;6.40;;;-4.80;99.90;;;;;;464256;254;29412;-70
2022/12/16 02:20:54;;;;;;;12.00;7.18;;;-4.80;99.90;;;;;;464225;255;27556;-68
2022/12/16 02:22:55;;;;;;;11.45;7.00;;;-4.90;99.90;;;;;;464210;256;27603;-69
2022/12/16 02:24:57;;;;;;;10.65;6.93;;;-4.90;99.90;;;;;;464175;256;27564;-68
2022/12/16 02:26:58;;;;;;;9.80;6.55;;;-5.00;99.90;;;;;;464229;254;27619;-68
2022/12/16 02:28:59;;;;;;;13.05;6.65;;;-5.00;99.90;;;;;;464267;254;27678;-69
2022/12/16 02:31:00;;;;;;;9.63;6.70;;;-5.00;99.90;;;;;;464206;255;27617;-68
2022/12/16 02:33:02;;;;;;;12.02;7.25;;;-5.00;99.90;;;;;;464258;256;27607;-68
2022/12/16 02:35:03;;;;;;;10.43;6.60;;;-5.20;99.90;;;;;;464231;256;28050;-68
2022/12/16 02:37:04;;;;;;;9.13;6.03;;;-5.30;99.90;;;;;;464261;254;28006;-68
2022/12/16 02:39:05;;;;;;;10.73;7.10;;;-5.30;99.90;;;;;;464325;255;27548;-71
2022/12/16 02:41:07;;;;;;;9.07;6.50;;;-5.40;99.90;;;;;;464261;256;27535;-68
2022/12/16 02:43:08;;;;;;;11.68;7.10;;;-5.40;99.90;;;;;;464286;254;27500;-68
2022/12/16 02:45:09;;;;;;;10.05;6.12;;;-5.40;99.90;;;;;;464244;256;27529;-68
2022/12/16 02:47:10;;;;;;;9.23;5.50;;;-5.50;99.90;;;;;;464291;254;27471;-68
2022/12/16 02:49:12;;;;;;;9.45;7.30;;;-5.60;99.90;;;;;;464302;254;27465;-69
2022/12/16 02:51:13;;;;;;;11.48;6.87;;;-5.60;99.90;;;;;;464293;256;27919;-68
2022/12/16 02:53:14;;;;;;;9.82;6.60;;;-5.60;99.90;;;;;;464296;254;28027;-69
2022/12/16 02:55:15;;;;;;;11.65;7.05;;;-5.70;99.90;;;;;;464255;256;28771;-69
2022/12/16 02:57:17;;;;;;;9.23;6.18;;;-5.70;99.90;;;;;;464220;256;27535;-68
2022/12/16 02:59:18;;;;;;;12.65;7.80;;;-5.70;99.90;;;;;;464241;255;27556;-69
2022/12/16 03:01:19;;;;;;;12.82;7.00;;;-5.70;99.90;;;;;;464245;256;27549;-69
2022/12/16 03:03:21;;;;;;;9.40;6.80;;;-5.70;99.90;;;;;;464277;254;28590;-69
2022/12/16 03:05:22;;;;;;;10.13;6.30;;;-5.70;99.90;;;;;;464290;254;27828;-69
2022/12/16 03:07:23;;;;;;;12.70;7.18;;;-5.80;99.90;;;;;;464262;254;27452;-68
2022/12/16 03:09:24;;;;;;;9.48;6.65;;;-5.80;99.90;;;;;;464225;256;28000;-68
2022/12/16 03:11:26;;;;;;;7.07;5.65;;;-5.70;99.90;;;;;;464254;254;28003;-69
2022/12/16 03:13:27;;;;;;;9.65;6.70;;;-5.70;99.90;;;;;;464271;254;27460;-68
2022/12/16 03:15:28;;;;;;;12.13;6.90;;;-5.70;99.90;;;;;;464294;255;27492;-70
2022/12/16 03:17:29;;;;;;;9.57;7.10;;;-5.70;99.90;;;;;;464244;256;27429;-69
2022/12/16 03:19:31;;;;;;;11.25;7.37;;;-5.80;99.90;;;;;;464272;254;27477;-68
2022/12/16 03:21:32;;;;;;;9.93;7.22;;;-5.90;99.90;;;;;;464281;254;27448;-67
2022/12/16 03:23:33;;;;;;;11.07;7.87;;;-5.90;99.90;;;;;;464262;254;27468;-69
2022/12/16 03:25:34;;;;;;;12.20;7.60;;;-5.90;99.90;;;;;;464267;255;27557;-71
2022/12/16 03:27:36;;;;;;;9.90;7.07;;;-5.80;99.90;;;;;;464259;256;28005;-68
2022/12/16 03:29:37;;;;;;;11.50;7.10;;;-5.90;99.90;;;;;;464267;254;29857;-69
2022/12/16 03:31:38;;;;;;;10.38;6.32;;;-5.90;99.90;;;;;;464272;256;27545;-68
2022/12/16 03:33:39;;;;;;;13.93;7.40;;;-5.80;99.90;;;;;;464242;256;27468;-68
2022/12/16 03:35:41;;;;;;;9.82;6.35;;;-5.80;99.90;;;;;;464276;255;27484;-69
2022/12/16 03:37:42;;;;;;;12.25;7.12;;;-5.90;99.90;;;;;;464263;253;27506;-68
2022/12/16 03:39:43;;;;;;;9.70;6.28;;;-5.90;99.90;;;;;;464225;256;27480;-69
2022/12/16 03:41:44;;;;;;;8.90;6.45;;;-5.90;99.90;;;;;;464278;256;27436;-68
2022/12/16 03:43:47;;;;;;;9.90;6.60;;;-6.00;99.90;;;;;;464111;254;27939;-68
2022/12/16 03:45:47;;;;;;;10.88;6.97;;;-6.00;99.90;;;;;;464265;254;28047;-70
2022/12/16 03:47:48;;;;;;;9.27;6.55;;;-6.10;99.90;;;;;;464248;256;27987;-68
2022/12/16 03:49:49;;;;;;;9.40;6.60;;;-6.10;99.90;;;;;;464275;256;27469;-69
2022/12/16 03:51:51;;;;;;;9.15;7.35;;;-6.10;99.90;;;;;;464287;256;27512;-68
2022/12/16 03:53:52;;;;;;;10.48;6.72;;;-6.10;99.90;;;;;;464202;254;28755;-68
2022/12/16 03:55:53;;;;;;;10.50;7.45;;;-6.10;99.90;;;;;;464240;256;27511;-68
2022/12/16 03:57:56;;;;;;;10.20;6.95;;;-6.10;99.90;;;;;;464238;256;27452;-68
2022/12/16 03:59:56;;;;;;;13.93;7.10;;;-6.20;99.90;;;;;;464205;256;27560;-69
2022/12/16 04:01:58;;;;;;;7.80;5.90;;;-6.30;99.90;;;;;;464299;255;27979;-68
2022/12/16 04:03:58;;;;;;;11.80;7.03;;;-6.30;99.90;;;;;;464144;256;28114;-69
2022/12/16 04:05:59;;;;;;;9.52;7.05;;;-6.20;99.90;;;;;;464137;256;27515;-69
2022/12/16 04:08:01;;;;;;;8.55;6.57;;;-6.20;99.90;;;;;;464163;254;27496;-68
2022/12/16 04:10:02;;;;;;;10.88;6.60;;;-6.30;99.90;;;;;;464050;253;28617;-68
2022/12/16 04:26:01;;;;;;;9.50;6.10;;;-6.50;99.90;;;;;;464248;255;28546;-68
2022/12/16 04:28:02;;;;;;;13.18;6.90;;;-6.50;99.90;;;;;;464208;255;27541;-69
2022/12/16 04:30:19;;;;;;;9.23;6.20;;;-6.50;99.90;;;;;;464245;256;29085;-67
2022/12/16 04:32:20;;;;;;;8.60;6.03;;;-6.50;99.90;;;;;;464294;255;27563;-68
2022/12/16 04:34:30;;;;;;;10.73;6.30;;;-6.50;99.90;;;;;;464203;256;27547;-69
